sensor_id;sensor_type;location;lat;lon;timestamp;temperature;humidity
15906;DHT22;8051;50.820;4.884;2023-03-19T00:00:36;10.10;99.90
15906;DHT22;8051;50.820;4.884;2023-03-19T00:03:03;10.10;99.90
15906;DHT22;8051;50.820;4.884;2023-03-19T00:05:32;10.10;99.90
15906;DHT22;8051;50.820;4.884;2023-03-19T00:07:59;10.00;99.90
15906;DHT22;8051;50.820;4.884;2023-03-19T00:10:27;9.90;99.90
15906;DHT22;8051;50.820;4.884;2023-03-19T00:12:54;9.90;99.90
15906;DHT22;8051;50.820;4.884;2023-03-19T00:15:22;9.90;99.90
15906;DHT22;8051;50.820;4.884;2023-03-19T00:17:49;9.90;99.90
15906;DHT22;8051;50.820;4.884;2023-03-19T00:20:17;9.90;99.90
15906;DHT22;8051;50.820;4.884;2023-03-19T00:22:46;10.00;99.90
15906;DHT22;8051;50.820;4.884;2023-03-19T00:25:14;10.00;99.90
15906;DHT22;8051;50.820;4.884;2023-03-19T00:27:41;10.00;99.90
15906;DHT22;8051;50.820;4.884;2023-03-19T00:30:10;10.10;99.90
15906;DHT22;8051;50.820;4.884;2023-03-19T00:32:38;10.10;99.90
15906;DHT22;8051;50.820;4.884;2023-03-19T00:35:07;10.10;99.90
15906;DHT22;8051;50.820;4.884;2023-03-19T00:37:35;10.20;99.90
15906;DHT22;8051;50.820;4.884;2023-03-19T00:40:04;10.20;99.90
15906;DHT22;8051;50.820;4.884;2023-03-19T00:42:32;10.20;99.90
15906;DHT22;8051;50.820;4.884;2023-03-19T00:45:00;10.30;99.90
15906;DHT22;8051;50.820;4.884;2023-03-19T00:47:27;10.30;99.90
15906;DHT22;8051;50.820;4.884;2023-03-19T00:49:55;10.30;99.90
15906;DHT22;8051;50.820;4.884;2023-03-19T00:52:22;10.30;99.90
15906;DHT22;8051;50.820;4.884;2023-03-19T00:54:49;10.40;99.90
15906;DHT22;8051;50.820;4.884;2023-03-19T00:57:18;10.40;99.90
15906;DHT22;8051;50.820;4.884;2023-03-19T00:59:46;10.40;99.90
15906;DHT22;8051;50.820;4.884;2023-03-19T01:02:14;10.40;99.90
15906;DHT22;8051;50.820;4.884;2023-03-19T01:04:42;10.40;99.90
15906;DHT22;8051;50.820;4.884;2023-03-19T01:07:09;10.40;99.90
15906;DHT22;8051;50.820;4.884;2023-03-19T01:09:37;10.40;99.90
15906;DHT22;8051;50.820;4.884;2023-03-19T01:12:05;10.40;99.90
15906;DHT22;8051;50.820;4.884;2023-03-19T01:14:34;10.40;99.90
15906;DHT22;8051;50.820;4.884;2023-03-19T01:17:01;10.40;99.90
15906;DHT22;8051;50.820;4.884;2023-03-19T01:19:29;10.40;99.90
15906;DHT22;8051;50.820;4.884;2023-03-19T01:21:57;10.40;99.90
15906;DHT22;8051;50.820;4.884;2023-03-19T01:24:28;10.50;99.90
15906;DHT22;8051;50.820;4.884;2023-03-19T01:26:56;10.40;99.90
15906;DHT22;8051;50.820;4.884;2023-03-19T01:29:23;10.50;99.90
15906;DHT22;8051;50.820;4.884;2023-03-19T01:31:52;10.50;99.90
15906;DHT22;8051;50.820;4.884;2023-03-19T01:34:19;10.50;99.90
15906;DHT22;8051;50.820;4.884;2023-03-19T01:36:48;10.50;99.90
15906;DHT22;8051;50.820;4.884;2023-03-19T01:39:15;10.50;99.90
15906;DHT22;8051;50.820;4.884;2023-03-19T01:41:43;10.50;99.90
15906;DHT22;8051;50.820;4.884;2023-03-19T01:44:24;10.50;99.90
15906;DHT22;8051;50.820;4.884;2023-03-19T01:46:53;10.50;99.90
15906;DHT22;8051;50.820;4.884;2023-03-19T01:49:22;10.50;99.90
15906;DHT22;8051;50.820;4.884;2023-03-19T01:51:52;10.50;99.90
15906;DHT22;8051;50.820;4.884;2023-03-19T01:54:22;10.50;99.90
15906;DHT22;8051;50.820;4.884;2023-03-19T01:56:52;10.50;99.90
15906;DHT22;8051;50.820;4.884;2023-03-19T01:59:26;10.50;99.90
15906;DHT22;8051;50.820;4.884;2023-03-19T02:01:59;10.40;99.90
15906;DHT22;8051;50.820;4.884;2023-03-19T02:04:28;10.50;99.90
15906;DHT22;8051;50.820;4.884;2023-03-19T02:06:58;10.40;99.90
15906;DHT22;8051;50.820;4.884;2023-03-19T02:09:27;10.40;99.90
15906;DHT22;8051;50.820;4.884;2023-03-19T02:11:55;10.40;99.90
15906;DHT22;8051;50.820;4.884;2023-03-19T02:14:23;10.40;99.90
15906;DHT22;8051;50.820;4.884;2023-03-19T02:16:52;10.40;99.90
15906;DHT22;8051;50.820;4.884;2023-03-19T02:19:27;10.40;99.90
15906;DHT22;8051;50.820;4.884;2023-03-19T02:21:58;10.30;99.90
15906;DHT22;8051;50.820;4.884;2023-03-19T02:24:32;10.20;99.90
15906;DHT22;8051;50.820;4.884;2023-03-19T02:27:01;10.20;99.90
15906;DHT22;8051;50.820;4.884;2023-03-19T02:29:29;10.20;99.90
15906;DHT22;8051;50.820;4.884;2023-03-19T02:31:57;10.20;99.90
15906;DHT22;8051;50.820;4.884;2023-03-19T02:34:38;10.30;99.90
15906;DHT22;8051;50.820;4.884;2023-03-19T02:37:12;10.20;99.90
15906;DHT22;8051;50.820;4.884;2023-03-19T02:39:49;10.20;99.90
15906;DHT22;8051;50.820;4.884;2023-03-19T02:42:19;10.20;99.90
15906;DHT22;8051;50.820;4.884;2023-03-19T02:44:48;10.20;99.90
15906;DHT22;8051;50.820;4.884;2023-03-19T02:47:16;10.20;99.90
15906;DHT22;8051;50.820;4.884;2023-03-19T02:49:43;10.20;99.90
15906;DHT22;8051;50.820;4.884;2023-03-19T02:52:11;10.20;99.90
15906;DHT22;8051;50.820;4.884;2023-03-19T02:54:38;10.20;99.90
15906;DHT22;8051;50.820;4.884;2023-03-19T02:57:06;10.20;99.90
15906;DHT22;8051;50.820;4.884;2023-03-19T02:59:35;10.20;99.90
15906;DHT22;8051;50.820;4.884;2023-03-19T03:02:04;10.20;99.90
15906;DHT22;8051;50.820;4.884;2023-03-19T03:04:32;10.20;99.90
15906;DHT22;8051;50.820;4.884;2023-03-19T03:07:02;10.20;99.90
15906;DHT22;8051;50.820;4.884;2023-03-19T03:09:29;10.20;99.90
15906;DHT22;8051;50.820;4.884;2023-03-19T03:11:57;10.20;99.90
15906;DHT22;8051;50.820;4.884;2023-03-19T03:14:24;10.20;99.90
15906;DHT22;8051;50.820;4.884;2023-03-19T03:16:53;10.20;99.90
15906;DHT22;8051;50.820;4.884;2023-03-19T03:19:22;10.20;99.90
15906;DHT22;8051;50.820;4.884;2023-03-19T03:21:49;10.20;99.90
15906;DHT22;8051;50.820;4.884;2023-03-19T03:24:17;10.20;99.90
15906;DHT22;8051;50.820;4.884;2023-03-19T03:26:44;10.20;99.90
15906;DHT22;8051;50.820;4.884;2023-03-19T03:29:12;10.20;99.90
15906;DHT22;8051;50.820;4.884;2023-03-19T03:31:39;10.20;99.90
15906;DHT22;8051;50.820;4.884;2023-03-19T03:34:08;10.20;99.90
15906;DHT22;8051;50.820;4.884;2023-03-19T03:36:36;10.10;99.90
15906;DHT22;8051;50.820;4.884;2023-03-19T03:39:03;10.10;99.90
15906;DHT22;8051;50.820;4.884;2023-03-19T03:41:31;10.10;99.90
15906;DHT22;8051;50.820;4.884;2023-03-19T03:43:59;10.20;99.90
15906;DHT22;8051;50.820;4.884;2023-03-19T03:46:26;10.20;99.90
15906;DHT22;8051;50.820;4.884;2023-03-19T03:48:54;10.20;99.90
15906;DHT22;8051;50.820;4.884;2023-03-19T03:51:22;10.20;99.90
15906;DHT22;8051;50.820;4.884;2023-03-19T03:53:50;10.20;99.90
15906;DHT22;8051;50.820;4.884;2023-03-19T03:56:18;10.20;99.90
15906;DHT22;8051;50.820;4.884;2023-03-19T03:58:45;10.10;99.90
15906;DHT22;8051;50.820;4.884;2023-03-19T04:01:14;10.10;99.90
15906;DHT22;8051;50.820;4.884;2023-03-19T04:03:42;10.20;99.90
15906;DHT22;8051;50.820;4.884;2023-03-19T04:06:13;10.20;99.90
15906;DHT22;8051;50.820;4.884;2023-03-19T04:08:42;10.20;99.90
15906;DHT22;8051;50.820;4.884;2023-03-19T04:11:10;10.30;99.90
15906;DHT22;8051;50.820;4.884;2023-03-19T04:13:37;10.30;99.90
15906;DHT22;8051;50.820;4.884;2023-03-19T04:16:06;10.40;99.90
15906;DHT22;8051;50.820;4.884;2023-03-19T04:18:34;10.30;99.90
15906;DHT22;8051;50.820;4.884;2023-03-19T04:21:02;10.20;99.90
15906;DHT22;8051;50.820;4.884;2023-03-19T04:23:29;10.20;99.90
15906;DHT22;8051;50.820;4.884;2023-03-19T04:25:59;10.10;99.90
15906;DHT22;8051;50.820;4.884;2023-03-19T04:28:27;10.10;99.90
15906;DHT22;8051;50.820;4.884;2023-03-19T04:30:58;10.10;99.90
15906;DHT22;8051;50.820;4.884;2023-03-19T04:33:26;10.20;99.90
15906;DHT22;8051;50.820;4.884;2023-03-19T04:35:54;10.20;99.90
15906;DHT22;8051;50.820;4.884;2023-03-19T04:38:23;10.20;99.90
15906;DHT22;8051;50.820;4.884;2023-03-19T04:40:52;10.30;99.90
15906;DHT22;8051;50.820;4.884;2023-03-19T04:43:22;10.30;99.90
15906;DHT22;8051;50.820;4.884;2023-03-19T04:45:50;10.30;99.90
15906;DHT22;8051;50.820;4.884;2023-03-19T04:48:17;10.30;99.90
15906;DHT22;8051;50.820;4.884;2023-03-19T04:50:45;10.30;99.90
15906;DHT22;8051;50.820;4.884;2023-03-19T04:53:17;10.30;99.90
15906;DHT22;8051;50.820;4.884;2023-03-19T04:55:45;10.30;99.90
15906;DHT22;8051;50.820;4.884;2023-03-19T04:58:13;10.30;99.90
15906;DHT22;8051;50.820;4.884;2023-03-19T05:00:42;10.30;99.90
15906;DHT22;8051;50.820;4.884;2023-03-19T05:03:11;10.20;99.90
15906;DHT22;8051;50.820;4.884;2023-03-19T05:05:39;10.10;99.90
15906;DHT22;8051;50.820;4.884;2023-03-19T05:08:07;10.00;99.90
15906;DHT22;8051;50.820;4.884;2023-03-19T05:10:35;9.90;99.90
15906;DHT22;8051;50.820;4.884;2023-03-19T05:13:03;9.90;99.90
15906;DHT22;8051;50.820;4.884;2023-03-19T05:15:30;9.80;99.90
15906;DHT22;8051;50.820;4.884;2023-03-19T05:17:59;9.70;99.90
15906;DHT22;8051;50.820;4.884;2023-03-19T05:20:26;9.70;99.90
15906;DHT22;8051;50.820;4.884;2023-03-19T05:22:54;9.60;99.90
15906;DHT22;8051;50.820;4.884;2023-03-19T05:25:22;9.60;99.90
15906;DHT22;8051;50.820;4.884;2023-03-19T05:27:49;9.60;99.90
15906;DHT22;8051;50.820;4.884;2023-03-19T05:30:17;9.60;99.90
15906;DHT22;8051;50.820;4.884;2023-03-19T05:32:44;9.50;99.90
15906;DHT22;8051;50.820;4.884;2023-03-19T05:35:13;9.50;99.90
15906;DHT22;8051;50.820;4.884;2023-03-19T05:37:42;9.50;99.90
15906;DHT22;8051;50.820;4.884;2023-03-19T05:40:10;9.40;99.90
15906;DHT22;8051;50.820;4.884;2023-03-19T05:42:38;9.40;99.90
15906;DHT22;8051;50.820;4.884;2023-03-19T05:45:06;9.40;99.90
15906;DHT22;8051;50.820;4.884;2023-03-19T05:47:34;9.30;99.90
15906;DHT22;8051;50.820;4.884;2023-03-19T05:50:02;9.30;99.90
15906;DHT22;8051;50.820;4.884;2023-03-19T05:52:31;9.30;99.90
15906;DHT22;8051;50.820;4.884;2023-03-19T05:54:58;9.20;99.90
15906;DHT22;8051;50.820;4.884;2023-03-19T05:57:26;9.20;99.90
15906;DHT22;8051;50.820;4.884;2023-03-19T05:59:53;9.20;99.90
15906;DHT22;8051;50.820;4.884;2023-03-19T06:02:21;9.20;99.90
15906;DHT22;8051;50.820;4.884;2023-03-19T06:04:49;9.20;99.90
15906;DHT22;8051;50.820;4.884;2023-03-19T06:07:16;9.20;99.90
15906;DHT22;8051;50.820;4.884;2023-03-19T06:09:45;9.20;99.90
15906;DHT22;8051;50.820;4.884;2023-03-19T06:12:13;9.20;99.90
15906;DHT22;8051;50.820;4.884;2023-03-19T06:14:41;9.20;99.90
15906;DHT22;8051;50.820;4.884;2023-03-19T06:17:08;9.30;99.90
15906;DHT22;8051;50.820;4.884;2023-03-19T06:19:36;9.30;99.90
15906;DHT22;8051;50.820;4.884;2023-03-19T06:22:04;9.40;99.90
15906;DHT22;8051;50.820;4.884;2023-03-19T06:24:31;9.40;99.90
15906;DHT22;8051;50.820;4.884;2023-03-19T06:27:00;9.50;99.90
15906;DHT22;8051;50.820;4.884;2023-03-19T06:29:27;9.60;99.90
15906;DHT22;8051;50.820;4.884;2023-03-19T06:31:55;9.60;99.90
15906;DHT22;8051;50.820;4.884;2023-03-19T06:34:22;9.70;99.90
15906;DHT22;8051;50.820;4.884;2023-03-19T06:36:50;9.70;99.90
15906;DHT22;8051;50.820;4.884;2023-03-19T06:39:18;9.80;99.90
15906;DHT22;8051;50.820;4.884;2023-03-19T06:41:46;9.90;99.90
15906;DHT22;8051;50.820;4.884;2023-03-19T06:44:15;10.00;99.90
15906;DHT22;8051;50.820;4.884;2023-03-19T06:46:43;10.10;99.90
15906;DHT22;8051;50.820;4.884;2023-03-19T06:49:10;10.20;99.90
15906;DHT22;8051;50.820;4.884;2023-03-19T06:51:38;10.20;99.90
15906;DHT22;8051;50.820;4.884;2023-03-19T06:54:06;10.30;99.90
15906;DHT22;8051;50.820;4.884;2023-03-19T06:56:33;10.30;99.90
15906;DHT22;8051;50.820;4.884;2023-03-19T06:59:01;10.30;99.90
15906;DHT22;8051;50.820;4.884;2023-03-19T07:01:30;10.40;99.90
15906;DHT22;8051;50.820;4.884;2023-03-19T07:03:57;10.40;99.90
15906;DHT22;8051;50.820;4.884;2023-03-19T07:06:24;10.50;99.90
15906;DHT22;8051;50.820;4.884;2023-03-19T07:08:52;10.50;99.90
15906;DHT22;8051;50.820;4.884;2023-03-19T07:11:19;10.60;99.90
15906;DHT22;8051;50.820;4.884;2023-03-19T07:13:47;10.50;99.90
15906;DHT22;8051;50.820;4.884;2023-03-19T07:16:14;10.50;99.90
15906;DHT22;8051;50.820;4.884;2023-03-19T07:18:43;10.50;99.90
15906;DHT22;8051;50.820;4.884;2023-03-19T07:21:11;10.60;99.90
15906;DHT22;8051;50.820;4.884;2023-03-19T07:23:38;10.60;99.90
15906;DHT22;8051;50.820;4.884;2023-03-19T07:26:06;10.50;99.90
15906;DHT22;8051;50.820;4.884;2023-03-19T07:28:33;10.50;99.90
15906;DHT22;8051;50.820;4.884;2023-03-19T07:31:01;10.40;99.90
15906;DHT22;8051;50.820;4.884;2023-03-19T07:33:28;10.40;99.90
15906;DHT22;8051;50.820;4.884;2023-03-19T07:35:57;10.40;99.90
15906;DHT22;8051;50.820;4.884;2023-03-19T07:38:25;10.40;99.90
15906;DHT22;8051;50.820;4.884;2023-03-19T07:40:53;10.40;99.90
15906;DHT22;8051;50.820;4.884;2023-03-19T07:43:21;10.40;99.90
15906;DHT22;8051;50.820;4.884;2023-03-19T07:45:48;10.30;99.90
15906;DHT22;8051;50.820;4.884;2023-03-19T07:48:16;10.30;99.90
15906;DHT22;8051;50.820;4.884;2023-03-19T07:50:43;10.20;99.90
15906;DHT22;8051;50.820;4.884;2023-03-19T07:53:12;10.20;99.90
15906;DHT22;8051;50.820;4.884;2023-03-19T07:55:40;10.10;99.90
15906;DHT22;8051;50.820;4.884;2023-03-19T07:58:07;10.00;99.90
15906;DHT22;8051;50.820;4.884;2023-03-19T08:00:35;10.10;99.90
15906;DHT22;8051;50.820;4.884;2023-03-19T08:03:02;10.20;99.90
15906;DHT22;8051;50.820;4.884;2023-03-19T08:05:30;10.30;99.90
15906;DHT22;8051;50.820;4.884;2023-03-19T08:07:58;10.40;99.90
15906;DHT22;8051;50.820;4.884;2023-03-19T08:10:27;10.40;99.90
15906;DHT22;8051;50.820;4.884;2023-03-19T08:12:55;10.40;99.90
15906;DHT22;8051;50.820;4.884;2023-03-19T08:15:22;10.50;99.90
15906;DHT22;8051;50.820;4.884;2023-03-19T08:17:56;10.50;99.90
15906;DHT22;8051;50.820;4.884;2023-03-19T08:20:24;10.50;99.90
15906;DHT22;8051;50.820;4.884;2023-03-19T08:22:51;10.50;99.90
15906;DHT22;8051;50.820;4.884;2023-03-19T08:25:19;10.60;99.90
15906;DHT22;8051;50.820;4.884;2023-03-19T08:27:48;10.70;99.90
15906;DHT22;8051;50.820;4.884;2023-03-19T08:30:16;10.80;99.90
15906;DHT22;8051;50.820;4.884;2023-03-19T08:32:44;10.90;99.90
15906;DHT22;8051;50.820;4.884;2023-03-19T08:35:11;11.00;99.90
15906;DHT22;8051;50.820;4.884;2023-03-19T08:37:39;11.10;99.90
15906;DHT22;8051;50.820;4.884;2023-03-19T08:40:08;11.20;99.90
15906;DHT22;8051;50.820;4.884;2023-03-19T08:42:35;11.30;99.90
15906;DHT22;8051;50.820;4.884;2023-03-19T08:45:10;11.40;99.90
15906;DHT22;8051;50.820;4.884;2023-03-19T08:47:38;11.50;99.90
15906;DHT22;8051;50.820;4.884;2023-03-19T08:50:06;11.60;99.90
15906;DHT22;8051;50.820;4.884;2023-03-19T08:52:34;11.50;99.90
15906;DHT22;8051;50.820;4.884;2023-03-19T08:55:01;11.60;99.90
15906;DHT22;8051;50.820;4.884;2023-03-19T08:57:29;11.70;99.90
15906;DHT22;8051;50.820;4.884;2023-03-19T08:59:57;11.70;99.90
15906;DHT22;8051;50.820;4.884;2023-03-19T09:02:26;11.90;99.90
15906;DHT22;8051;50.820;4.884;2023-03-19T09:04:54;12.00;99.90
15906;DHT22;8051;50.820;4.884;2023-03-19T09:07:21;12.10;99.90
15906;DHT22;8051;50.820;4.884;2023-03-19T09:09:49;12.10;99.90
15906;DHT22;8051;50.820;4.884;2023-03-19T09:12:18;12.10;99.90
15906;DHT22;8051;50.820;4.884;2023-03-19T09:14:45;12.30;99.90
15906;DHT22;8051;50.820;4.884;2023-03-19T09:17:13;12.30;99.90
15906;DHT22;8051;50.820;4.884;2023-03-19T09:19:42;12.30;99.90
15906;DHT22;8051;50.820;4.884;2023-03-19T09:22:09;12.40;99.90
15906;DHT22;8051;50.820;4.884;2023-03-19T09:24:37;12.40;99.90
15906;DHT22;8051;50.820;4.884;2023-03-19T09:27:04;12.40;99.90
15906;DHT22;8051;50.820;4.884;2023-03-19T09:29:32;12.40;99.90
15906;DHT22;8051;50.820;4.884;2023-03-19T09:31:59;12.50;99.90
15906;DHT22;8051;50.820;4.884;2023-03-19T09:34:27;12.70;99.90
15906;DHT22;8051;50.820;4.884;2023-03-19T09:36:56;12.70;99.90
15906;DHT22;8051;50.820;4.884;2023-03-19T09:39:23;12.70;99.90
15906;DHT22;8051;50.820;4.884;2023-03-19T09:42:04;12.60;99.90
15906;DHT22;8051;50.820;4.884;2023-03-19T09:44:37;12.60;99.90
15906;DHT22;8051;50.820;4.884;2023-03-19T09:47:19;12.60;99.90
15906;DHT22;8051;50.820;4.884;2023-03-19T09:49:51;12.50;99.90
15906;DHT22;8051;50.820;4.884;2023-03-19T09:52:34;12.60;99.90
15906;DHT22;8051;50.820;4.884;2023-03-19T09:55:19;12.50;99.90
15906;DHT22;8051;50.820;4.884;2023-03-19T09:57:53;12.40;99.90
15906;DHT22;8051;50.820;4.884;2023-03-19T10:00:23;12.30;99.90
15906;DHT22;8051;50.820;4.884;2023-03-19T10:02:56;12.40;99.90
15906;DHT22;8051;50.820;4.884;2023-03-19T10:05:34;12.40;99.90
15906;DHT22;8051;50.820;4.884;2023-03-19T10:08:26;12.70;99.90
15906;DHT22;8051;50.820;4.884;2023-03-19T10:11:18;13.00;99.90
15906;DHT22;8051;50.820;4.884;2023-03-19T10:13:58;13.00;99.90
15906;DHT22;8051;50.820;4.884;2023-03-19T10:16:29;13.00;99.90
15906;DHT22;8051;50.820;4.884;2023-03-19T10:18:58;13.00;99.90
15906;DHT22;8051;50.820;4.884;2023-03-19T10:21:31;13.00;99.90
15906;DHT22;8051;50.820;4.884;2023-03-19T10:24:04;13.10;99.90
15906;DHT22;8051;50.820;4.884;2023-03-19T10:26:34;13.10;99.90
15906;DHT22;8051;50.820;4.884;2023-03-19T10:29:07;13.10;99.90
15906;DHT22;8051;50.820;4.884;2023-03-19T10:31:42;13.00;99.90
15906;DHT22;8051;50.820;4.884;2023-03-19T10:34:29;13.00;99.90
15906;DHT22;8051;50.820;4.884;2023-03-19T10:37:02;13.00;99.90
15906;DHT22;8051;50.820;4.884;2023-03-19T10:39:36;13.20;99.90
15906;DHT22;8051;50.820;4.884;2023-03-19T10:42:15;13.50;99.90
15906;DHT22;8051;50.820;4.884;2023-03-19T10:44:48;13.70;99.90
15906;DHT22;8051;50.820;4.884;2023-03-19T10:47:17;13.90;99.90
15906;DHT22;8051;50.820;4.884;2023-03-19T10:49:49;14.30;99.90
15906;DHT22;8051;50.820;4.884;2023-03-19T10:52:23;14.60;99.90
15906;DHT22;8051;50.820;4.884;2023-03-19T10:55:00;15.00;99.90
15906;DHT22;8051;50.820;4.884;2023-03-19T10:57:29;15.30;99.90
15906;DHT22;8051;50.820;4.884;2023-03-19T11:00:01;15.70;99.90
15906;DHT22;8051;50.820;4.884;2023-03-19T11:02:30;15.90;99.90
15906;DHT22;8051;50.820;4.884;2023-03-19T11:05:22;15.60;99.90
15906;DHT22;8051;50.820;4.884;2023-03-19T11:07:58;15.50;99.90
15906;DHT22;8051;50.820;4.884;2023-03-19T11:10:29;15.50;99.90
15906;DHT22;8051;50.820;4.884;2023-03-19T11:12:58;15.40;99.90
15906;DHT22;8051;50.820;4.884;2023-03-19T11:15:31;15.30;99.90
15906;DHT22;8051;50.820;4.884;2023-03-19T11:18:06;15.30;99.90
15906;DHT22;8051;50.820;4.884;2023-03-19T11:20:36;15.20;99.90
15906;DHT22;8051;50.820;4.884;2023-03-19T11:23:13;15.20;99.90
15906;DHT22;8051;50.820;4.884;2023-03-19T11:25:46;15.30;99.90
15906;DHT22;8051;50.820;4.884;2023-03-19T11:28:17;15.10;99.90
15906;DHT22;8051;50.820;4.884;2023-03-19T11:30:50;15.00;99.90
15906;DHT22;8051;50.820;4.884;2023-03-19T11:33:38;15.00;99.90
15906;DHT22;8051;50.820;4.884;2023-03-19T11:36:12;14.90;99.90
15906;DHT22;8051;50.820;4.884;2023-03-19T11:38:55;15.00;99.90
15906;DHT22;8051;50.820;4.884;2023-03-19T11:41:32;15.00;99.90
15906;DHT22;8051;50.820;4.884;2023-03-19T11:44:04;14.90;99.90
15906;DHT22;8051;50.820;4.884;2023-03-19T11:46:37;14.80;99.90
15906;DHT22;8051;50.820;4.884;2023-03-19T11:49:22;14.70;99.90
15906;DHT22;8051;50.820;4.884;2023-03-19T11:52:00;14.90;99.90
15906;DHT22;8051;50.820;4.884;2023-03-19T11:54:35;15.00;99.90
15906;DHT22;8051;50.820;4.884;2023-03-19T11:57:13;15.10;99.90
15906;DHT22;8051;50.820;4.884;2023-03-19T11:59:53;15.10;99.90
15906;DHT22;8051;50.820;4.884;2023-03-19T12:02:53;15.00;99.90
15906;DHT22;8051;50.820;4.884;2023-03-19T12:05:30;15.00;99.90
15906;DHT22;8051;50.820;4.884;2023-03-19T12:08:09;15.00;99.90
15906;DHT22;8051;50.820;4.884;2023-03-19T12:10:53;14.90;99.90
15906;DHT22;8051;50.820;4.884;2023-03-19T12:13:40;15.10;99.90
15906;DHT22;8051;50.820;4.884;2023-03-19T12:16:16;15.30;99.90
15906;DHT22;8051;50.820;4.884;2023-03-19T12:18:57;15.50;99.90
15906;DHT22;8051;50.820;4.884;2023-03-19T12:21:33;15.80;99.90
15906;DHT22;8051;50.820;4.884;2023-03-19T12:24:11;16.10;99.90
15906;DHT22;8051;50.820;4.884;2023-03-19T12:26:53;16.30;99.90
15906;DHT22;8051;50.820;4.884;2023-03-19T12:29:32;16.60;99.90
15906;DHT22;8051;50.820;4.884;2023-03-19T12:32:15;16.60;99.90
15906;DHT22;8051;50.820;4.884;2023-03-19T12:34:47;16.60;99.90
15906;DHT22;8051;50.820;4.884;2023-03-19T12:37:20;16.50;99.90
15906;DHT22;8051;50.820;4.884;2023-03-19T12:40:04;16.30;99.90
15906;DHT22;8051;50.820;4.884;2023-03-19T12:42:37;16.20;99.90
15906;DHT22;8051;50.820;4.884;2023-03-19T12:45:17;16.30;99.90
15906;DHT22;8051;50.820;4.884;2023-03-19T12:47:46;16.30;99.90
15906;DHT22;8051;50.820;4.884;2023-03-19T12:50:16;16.20;99.90
15906;DHT22;8051;50.820;4.884;2023-03-19T12:52:47;16.40;99.90
15906;DHT22;8051;50.820;4.884;2023-03-19T12:55:20;16.40;99.90
15906;DHT22;8051;50.820;4.884;2023-03-19T12:57:50;16.40;99.90
15906;DHT22;8051;50.820;4.884;2023-03-19T13:00:27;16.50;99.90
15906;DHT22;8051;50.820;4.884;2023-03-19T13:03:02;16.50;99.90
15906;DHT22;8051;50.820;4.884;2023-03-19T13:05:35;16.50;99.90
15906;DHT22;8051;50.820;4.884;2023-03-19T13:08:11;16.50;99.90
15906;DHT22;8051;50.820;4.884;2023-03-19T13:10:42;16.40;99.90
15906;DHT22;8051;50.820;4.884;2023-03-19T13:13:23;16.40;99.90
15906;DHT22;8051;50.820;4.884;2023-03-19T13:15:56;16.60;99.90
15906;DHT22;8051;50.820;4.884;2023-03-19T13:18:34;16.70;99.90
15906;DHT22;8051;50.820;4.884;2023-03-19T13:21:15;16.40;99.90
15906;DHT22;8051;50.820;4.884;2023-03-19T13:23:46;16.20;99.90
15906;DHT22;8051;50.820;4.884;2023-03-19T13:26:15;16.00;99.90
15906;DHT22;8051;50.820;4.884;2023-03-19T13:28:59;15.80;99.90
15906;DHT22;8051;50.820;4.884;2023-03-19T13:31:33;15.40;99.90
15906;DHT22;8051;50.820;4.884;2023-03-19T13:34:02;15.00;99.90
15906;DHT22;8051;50.820;4.884;2023-03-19T13:36:35;14.70;99.90
15906;DHT22;8051;50.820;4.884;2023-03-19T13:39:11;14.40;99.90
15906;DHT22;8051;50.820;4.884;2023-03-19T13:42:09;14.20;99.90
15906;DHT22;8051;50.820;4.884;2023-03-19T13:44:41;14.10;99.90
15906;DHT22;8051;50.820;4.884;2023-03-19T13:47:39;14.00;99.90
15906;DHT22;8051;50.820;4.884;2023-03-19T13:50:28;14.00;99.90
15906;DHT22;8051;50.820;4.884;2023-03-19T13:53:22;14.00;99.90
15906;DHT22;8051;50.820;4.884;2023-03-19T13:55:59;13.80;99.90
15906;DHT22;8051;50.820;4.884;2023-03-19T13:58:29;13.70;99.90
15906;DHT22;8051;50.820;4.884;2023-03-19T14:01:37;13.50;99.90
15906;DHT22;8051;50.820;4.884;2023-03-19T14:04:17;13.50;99.90
15906;DHT22;8051;50.820;4.884;2023-03-19T14:06:48;13.60;99.90
15906;DHT22;8051;50.820;4.884;2023-03-19T14:09:36;13.70;99.90
15906;DHT22;8051;50.820;4.884;2023-03-19T14:12:22;13.80;99.90
15906;DHT22;8051;50.820;4.884;2023-03-19T14:14:52;14.00;99.90
15906;DHT22;8051;50.820;4.884;2023-03-19T14:17:23;14.20;99.90
15906;DHT22;8051;50.820;4.884;2023-03-19T14:19:53;14.20;99.90
15906;DHT22;8051;50.820;4.884;2023-03-19T14:22:32;14.30;99.90
15906;DHT22;8051;50.820;4.884;2023-03-19T14:25:14;14.50;99.90
15906;DHT22;8051;50.820;4.884;2023-03-19T14:27:47;14.60;99.90
15906;DHT22;8051;50.820;4.884;2023-03-19T14:30:23;14.70;99.90
15906;DHT22;8051;50.820;4.884;2023-03-19T14:32:54;14.60;99.90
15906;DHT22;8051;50.820;4.884;2023-03-19T14:35:25;14.60;99.90
15906;DHT22;8051;50.820;4.884;2023-03-19T14:37:53;14.60;99.90
15906;DHT22;8051;50.820;4.884;2023-03-19T14:40:23;14.50;99.90
15906;DHT22;8051;50.820;4.884;2023-03-19T14:43:02;14.40;99.90
15906;DHT22;8051;50.820;4.884;2023-03-19T14:45:42;14.30;99.90
15906;DHT22;8051;50.820;4.884;2023-03-19T14:48:19;14.30;99.90
15906;DHT22;8051;50.820;4.884;2023-03-19T14:51:13;14.20;99.90
15906;DHT22;8051;50.820;4.884;2023-03-19T14:53:49;14.10;99.90
15906;DHT22;8051;50.820;4.884;2023-03-19T14:56:20;14.00;99.90
15906;DHT22;8051;50.820;4.884;2023-03-19T14:58:51;13.90;99.90
15906;DHT22;8051;50.820;4.884;2023-03-19T15:01:19;13.90;99.90
15906;DHT22;8051;50.820;4.884;2023-03-19T15:03:53;13.90;99.90
15906;DHT22;8051;50.820;4.884;2023-03-19T15:06:22;13.90;99.90
15906;DHT22;8051;50.820;4.884;2023-03-19T15:08:50;13.90;99.90
15906;DHT22;8051;50.820;4.884;2023-03-19T15:14:20;13.80;99.90
15906;DHT22;8051;50.820;4.884;2023-03-19T15:16:58;13.60;99.90
15906;DHT22;8051;50.820;4.884;2023-03-19T15:19:28;13.60;99.90
15906;DHT22;8051;50.820;4.884;2023-03-19T15:22:09;13.70;99.90
15906;DHT22;8051;50.820;4.884;2023-03-19T15:24:38;13.90;99.90
15906;DHT22;8051;50.820;4.884;2023-03-19T15:27:16;14.00;99.90
15906;DHT22;8051;50.820;4.884;2023-03-19T15:29:43;14.20;99.90
15906;DHT22;8051;50.820;4.884;2023-03-19T15:32:11;14.20;99.90
15906;DHT22;8051;50.820;4.884;2023-03-19T15:34:38;14.40;99.90
15906;DHT22;8051;50.820;4.884;2023-03-19T15:37:09;14.60;99.90
15906;DHT22;8051;50.820;4.884;2023-03-19T15:39:42;14.80;99.90
15906;DHT22;8051;50.820;4.884;2023-03-19T15:42:11;14.70;99.90
15906;DHT22;8051;50.820;4.884;2023-03-19T15:44:41;14.50;99.90
15906;DHT22;8051;50.820;4.884;2023-03-19T15:47:12;14.30;99.90
15906;DHT22;8051;50.820;4.884;2023-03-19T15:49:44;14.20;99.90
15906;DHT22;8051;50.820;4.884;2023-03-19T15:52:16;14.20;99.90
15906;DHT22;8051;50.820;4.884;2023-03-19T15:54:45;14.20;99.90
15906;DHT22;8051;50.820;4.884;2023-03-19T15:57:15;14.10;99.90
15906;DHT22;8051;50.820;4.884;2023-03-19T15:59:43;14.00;99.90
15906;DHT22;8051;50.820;4.884;2023-03-19T16:02:28;14.30;99.90
15906;DHT22;8051;50.820;4.884;2023-03-19T16:04:56;14.00;99.90
15906;DHT22;8051;50.820;4.884;2023-03-19T16:07:31;13.90;99.90
15906;DHT22;8051;50.820;4.884;2023-03-19T16:10:28;13.90;99.90
15906;DHT22;8051;50.820;4.884;2023-03-19T16:12:56;13.80;99.90
15906;DHT22;8051;50.820;4.884;2023-03-19T16:15:32;13.50;99.90